Guidonia, Italy

3:44 AM CEST on September 02, 2015 (GMT +0200)
Tivoli (RM), Roma | | Change Station
CLOSE
Current Station
Personal Weather Station
Location: Tivoli, LAZIO
Elevation: 830 ft
Nearby Weather Stations

Elev 830 ft 41.96 °N, 12.80 °E | Updated 19 seconds ago

Clear
Clear
66.4 °F
Feels Like 66.4 °F
N
7.0
Wind Variable Wind from SE
Gusts 10.0 mph

Today
High -- | Low -- °F
--% Chance of Precip.
Yesterday
High -- | Low -- °F
Precip. -- in
6:35 AM 7:41 PM
Waning Gibbous, 85% visible
Pressure 29.92 in
Visibility -9999.0 miles
Clouds
Dew Point 56 °F
Humidity 68%
Rainfall 0.00 in
Snow Depth Not available.
UV Not available.
Pollen Not available.
Air Quality Not available.
Flu Activity Not available.
METAR LIRA 020120Z 10005KT CAVOK 21/16 Q1013
Pressure 29.92 in
Visibility -9999.0 miles
Clouds
Dew Point 56 °F
Humidity 68%
Rainfall 0.00 in
Snow Depth Not available.
UV Not available.
Pollen Not available.
Air Quality Not available.
Flu Activity Not available.
METAR LIRA 020120Z 10005KT CAVOK 21/16 Q1013

10-Day Weather Forecast

×

Almanac

Astronomy

Sep. 02, 2015 Rise Set
Actual Time
Civil Twilight
Nautical Twilight
Astronomical Twilight
Moon
Length of Visible Light
Length of Day
Tomorrow will be .
, % of the Moon is Illuminated

Today's Extremes

Country Highs Country Lows

Community

WunderPhotos

Upload Photos

1,851,673 photos uploaded!

WunderBlogs® & News

Nearby

Air Quality

  Air Quality AQ Index Pollutant
Not available.

Snow Depth

Station Depth Elevation

Earthquake Activity

City Distance Mag. Time & Date
Minimum magnitude displayed is 2.5.

Coastal Water Temperatures

Place Temperature

Stations

Nearby Weather Stations

Station Location Temp. Windchill Dew Point Humidity Wind Precip. Elev Updated Type